sensor_id;sensor_type;location;lat;lon;timestamp;temperature;humidity
75985;DHT22;65033;44.660;37.758;2022-12-31T00:00:26;27.65;41.16
75985;DHT22;65033;44.660;37.758;2022-12-31T00:01:30;27.65;41.16
75985;DHT22;65033;44.660;37.758;2022-12-31T00:02:34;27.65;41.16
75985;DHT22;65033;44.660;37.758;2022-12-31T00:03:38;27.65;41.13
75985;DHT22;65033;44.660;37.758;2022-12-31T00:04:42;27.66;41.12
75985;DHT22;65033;44.660;37.758;2022-12-31T00:05:45;27.65;41.12
75985;DHT22;65033;44.660;37.758;2022-12-31T00:06:49;27.66;41.10
75985;DHT22;65033;44.660;37.758;2022-12-31T00:07:52;27.67;41.10
75985;DHT22;65033;44.660;37.758;2022-12-31T00:08:58;27.66;41.09
75985;DHT22;65033;44.660;37.758;2022-12-31T00:10:01;27.68;41.08
75985;DHT22;65033;44.660;37.758;2022-12-31T00:11:17;27.65;41.10
75985;DHT22;65033;44.660;37.758;2022-12-31T00:12:21;27.66;41.07
75985;DHT22;65033;44.660;37.758;2022-12-31T00:13:25;27.64;41.07
75985;DHT22;65033;44.660;37.758;2022-12-31T00:14:36;27.65;41.07
75985;DHT22;65033;44.660;37.758;2022-12-31T00:15:42;27.65;41.06
75985;DHT22;65033;44.660;37.758;2022-12-31T00:16:46;27.65;41.08
75985;DHT22;65033;44.660;37.758;2022-12-31T00:17:52;27.64;41.06
75985;DHT22;65033;44.660;37.758;2022-12-31T00:18:57;27.64;41.04
75985;DHT22;65033;44.660;37.758;2022-12-31T00:20:04;27.65;41.04
75985;DHT22;65033;44.660;37.758;2022-12-31T00:21:09;27.65;41.04
75985;DHT22;65033;44.660;37.758;2022-12-31T00:22:12;27.64;41.05
75985;DHT22;65033;44.660;37.758;2022-12-31T00:23:15;27.64;41.04
75985;DHT22;65033;44.660;37.758;2022-12-31T00:24:19;27.63;41.04
75985;DHT22;65033;44.660;37.758;2022-12-31T00:25:26;27.63;41.04
75985;DHT22;65033;44.660;37.758;2022-12-31T00:26:32;27.64;41.03
75985;DHT22;65033;44.660;37.758;2022-12-31T00:27:36;27.64;41.00
75985;DHT22;65033;44.660;37.758;2022-12-31T00:28:40;27.60;41.01
75985;DHT22;65033;44.660;37.758;2022-12-31T00:29:44;27.63;41.00
75985;DHT22;65033;44.660;37.758;2022-12-31T00:30:47;27.63;41.00
75985;DHT22;65033;44.660;37.758;2022-12-31T00:31:52;27.61;41.00
75985;DHT22;65033;44.660;37.758;2022-12-31T00:32:55;27.63;41.00
75985;DHT22;65033;44.660;37.758;2022-12-31T00:33:59;27.63;40.98
75985;DHT22;65033;44.660;37.758;2022-12-31T00:35:07;27.63;40.97
75985;DHT22;65033;44.660;37.758;2022-12-31T00:36:12;27.64;40.94
75985;DHT22;65033;44.660;37.758;2022-12-31T00:37:16;27.64;40.91
75985;DHT22;65033;44.660;37.758;2022-12-31T00:38:20;27.63;40.92
75985;DHT22;65033;44.660;37.758;2022-12-31T00:39:23;27.64;40.89
75985;DHT22;65033;44.660;37.758;2022-12-31T00:40:28;27.64;40.88
75985;DHT22;65033;44.660;37.758;2022-12-31T00:41:33;27.63;40.86
75985;DHT22;65033;44.660;37.758;2022-12-31T00:42:36;27.65;40.86
75985;DHT22;65033;44.660;37.758;2022-12-31T00:43:40;27.65;40.84
75985;DHT22;65033;44.660;37.758;2022-12-31T00:44:43;27.64;40.83
75985;DHT22;65033;44.660;37.758;2022-12-31T00:45:46;27.63;40.85
75985;DHT22;65033;44.660;37.758;2022-12-31T00:46:50;27.64;40.81
75985;DHT22;65033;44.660;37.758;2022-12-31T00:47:55;27.64;40.80
75985;DHT22;65033;44.660;37.758;2022-12-31T00:49:09;27.64;40.80
75985;DHT22;65033;44.660;37.758;2022-12-31T00:50:12;27.64;40.80
75985;DHT22;65033;44.660;37.758;2022-12-31T00:51:17;27.64;40.79
75985;DHT22;65033;44.660;37.758;2022-12-31T00:52:21;27.63;40.80
75985;DHT22;65033;44.660;37.758;2022-12-31T00:53:25;27.63;40.77
75985;DHT22;65033;44.660;37.758;2022-12-31T00:54:28;27.63;40.76
75985;DHT22;65033;44.660;37.758;2022-12-31T00:55:31;27.63;40.78
75985;DHT22;65033;44.660;37.758;2022-12-31T00:56:36;27.63;40.77
75985;DHT22;65033;44.660;37.758;2022-12-31T00:57:39;27.63;40.77
75985;DHT22;65033;44.660;37.758;2022-12-31T00:58:43;27.63;40.75
75985;DHT22;65033;44.660;37.758;2022-12-31T00:59:46;27.61;40.75
75985;DHT22;65033;44.660;37.758;2022-12-31T01:00:50;27.61;40.76
75985;DHT22;65033;44.660;37.758;2022-12-31T01:01:54;27.63;40.75
75985;DHT22;65033;44.660;37.758;2022-12-31T01:02:58;27.61;40.77
75985;DHT22;65033;44.660;37.758;2022-12-31T01:04:02;27.60;40.76
75985;DHT22;65033;44.660;37.758;2022-12-31T01:05:06;27.60;40.75
75985;DHT22;65033;44.660;37.758;2022-12-31T01:06:16;27.61;40.72
75985;DHT22;65033;44.660;37.758;2022-12-31T01:07:21;27.60;40.71
75985;DHT22;65033;44.660;37.758;2022-12-31T01:08:25;27.61;40.70
75985;DHT22;65033;44.660;37.758;2022-12-31T01:09:31;27.60;40.73
75985;DHT22;65033;44.660;37.758;2022-12-31T01:10:35;27.60;40.74
75985;DHT22;65033;44.660;37.758;2022-12-31T01:12:02;27.59;40.74
75985;DHT22;65033;44.660;37.758;2022-12-31T01:13:06;27.61;40.73
75985;DHT22;65033;44.660;37.758;2022-12-31T01:14:19;27.60;40.73
75985;DHT22;65033;44.660;37.758;2022-12-31T01:15:23;27.61;40.73
75985;DHT22;65033;44.660;37.758;2022-12-31T01:16:30;27.60;40.73
75985;DHT22;65033;44.660;37.758;2022-12-31T01:17:44;27.59;40.73
75985;DHT22;65033;44.660;37.758;2022-12-31T01:18:47;27.58;40.73
75985;DHT22;65033;44.660;37.758;2022-12-31T01:19:51;27.59;40.68
75985;DHT22;65033;44.660;37.758;2022-12-31T01:20:55;27.58;40.69
75985;DHT22;65033;44.660;37.758;2022-12-31T01:21:58;27.59;40.68
75985;DHT22;65033;44.660;37.758;2022-12-31T01:23:01;27.59;40.68
75985;DHT22;65033;44.660;37.758;2022-12-31T01:24:06;27.60;40.65
75985;DHT22;65033;44.660;37.758;2022-12-31T01:25:13;27.59;40.68
75985;DHT22;65033;44.660;37.758;2022-12-31T01:26:27;27.59;40.65
75985;DHT22;65033;44.660;37.758;2022-12-31T01:27:31;27.60;40.64
75985;DHT22;65033;44.660;37.758;2022-12-31T01:28:35;27.60;40.62
75985;DHT22;65033;44.660;37.758;2022-12-31T01:29:38;27.60;40.62
75985;DHT22;65033;44.660;37.758;2022-12-31T01:30:42;27.61;40.62
75985;DHT22;65033;44.660;37.758;2022-12-31T01:31:45;27.60;40.61
75985;DHT22;65033;44.660;37.758;2022-12-31T01:32:48;27.59;40.59
75985;DHT22;65033;44.660;37.758;2022-12-31T01:33:52;27.60;40.59
75985;DHT22;65033;44.660;37.758;2022-12-31T01:34:59;27.60;40.59
75985;DHT22;65033;44.660;37.758;2022-12-31T01:36:03;27.60;40.59
75985;DHT22;65033;44.660;37.758;2022-12-31T01:37:07;27.58;40.59
75985;DHT22;65033;44.660;37.758;2022-12-31T01:38:11;27.58;40.60
75985;DHT22;65033;44.660;37.758;2022-12-31T01:39:14;27.59;40.59
75985;DHT22;65033;44.660;37.758;2022-12-31T01:40:19;27.58;40.58
75985;DHT22;65033;44.660;37.758;2022-12-31T01:41:26;27.58;40.58
75985;DHT22;65033;44.660;37.758;2022-12-31T01:42:34;27.58;40.58
75985;DHT22;65033;44.660;37.758;2022-12-31T01:43:45;27.58;40.55
75985;DHT22;65033;44.660;37.758;2022-12-31T01:44:52;27.59;40.58
75985;DHT22;65033;44.660;37.758;2022-12-31T01:45:56;27.58;40.58
75985;DHT22;65033;44.660;37.758;2022-12-31T01:47:02;27.58;40.55
75985;DHT22;65033;44.660;37.758;2022-12-31T01:48:09;27.59;40.54
75985;DHT22;65033;44.660;37.758;2022-12-31T01:49:18;27.58;40.56
75985;DHT22;65033;44.660;37.758;2022-12-31T01:50:25;27.58;40.55
75985;DHT22;65033;44.660;37.758;2022-12-31T01:51:32;27.56;40.55
75985;DHT22;65033;44.660;37.758;2022-12-31T01:52:38;27.57;40.53
75985;DHT22;65033;44.660;37.758;2022-12-31T01:53:43;27.57;40.53
75985;DHT22;65033;44.660;37.758;2022-12-31T01:54:49;27.59;40.52
75985;DHT22;65033;44.660;37.758;2022-12-31T01:55:56;27.57;40.52
75985;DHT22;65033;44.660;37.758;2022-12-31T01:57:02;27.56;40.53
75985;DHT22;65033;44.660;37.758;2022-12-31T01:58:11;27.57;40.52
75985;DHT22;65033;44.660;37.758;2022-12-31T01:59:16;27.57;40.52
75985;DHT22;65033;44.660;37.758;2022-12-31T02:00:21;27.57;40.52
75985;DHT22;65033;44.660;37.758;2022-12-31T02:01:28;27.58;40.51
75985;DHT22;65033;44.660;37.758;2022-12-31T02:02:33;27.57;40.49
75985;DHT22;65033;44.660;37.758;2022-12-31T02:03:37;27.57;40.48
75985;DHT22;65033;44.660;37.758;2022-12-31T02:04:41;27.57;40.47
75985;DHT22;65033;44.660;37.758;2022-12-31T02:05:58;27.57;40.47
75985;DHT22;65033;44.660;37.758;2022-12-31T02:07:05;27.57;40.46
75985;DHT22;65033;44.660;37.758;2022-12-31T02:08:10;27.57;40.49
75985;DHT22;65033;44.660;37.758;2022-12-31T02:09:14;27.58;40.46
75985;DHT22;65033;44.660;37.758;2022-12-31T02:10:19;27.57;40.45
75985;DHT22;65033;44.660;37.758;2022-12-31T02:11:25;27.57;40.46
75985;DHT22;65033;44.660;37.758;2022-12-31T02:12:29;27.57;40.44
75985;DHT22;65033;44.660;37.758;2022-12-31T02:13:34;27.57;40.42
75985;DHT22;65033;44.660;37.758;2022-12-31T02:14:41;27.57;40.43
75985;DHT22;65033;44.660;37.758;2022-12-31T02:15:56;27.57;40.42
75985;DHT22;65033;44.660;37.758;2022-12-31T02:17:08;27.57;40.42
75985;DHT22;65033;44.660;37.758;2022-12-31T02:18:21;27.56;40.40
75985;DHT22;65033;44.660;37.758;2022-12-31T02:19:57;27.57;40.37
75985;DHT22;65033;44.660;37.758;2022-12-31T02:21:30;27.56;40.42
75985;DHT22;65033;44.660;37.758;2022-12-31T02:22:51;27.56;40.40
75985;DHT22;65033;44.660;37.758;2022-12-31T02:25:46;27.56;40.40
75985;DHT22;65033;44.660;37.758;2022-12-31T02:26:58;27.56;40.39
75985;DHT22;65033;44.660;37.758;2022-12-31T02:28:17;27.56;40.40
75985;DHT22;65033;44.660;37.758;2022-12-31T02:31:01;27.56;40.37
75985;DHT22;65033;44.660;37.758;2022-12-31T02:32:12;27.55;40.36
75985;DHT22;65033;44.660;37.758;2022-12-31T02:33:21;27.56;40.36
75985;DHT22;65033;44.660;37.758;2022-12-31T02:34:32;27.56;40.36
75985;DHT22;65033;44.660;37.758;2022-12-31T02:35:45;27.55;40.37
75985;DHT22;65033;44.660;37.758;2022-12-31T02:36:53;27.55;40.38
75985;DHT22;65033;44.660;37.758;2022-12-31T02:38:02;27.57;40.35
75985;DHT22;65033;44.660;37.758;2022-12-31T02:39:08;27.55;40.39
75985;DHT22;65033;44.660;37.758;2022-12-31T02:40:14;27.56;40.36
75985;DHT22;65033;44.660;37.758;2022-12-31T02:41:19;27.56;40.36
75985;DHT22;65033;44.660;37.758;2022-12-31T02:42:41;27.57;40.37
75985;DHT22;65033;44.660;37.758;2022-12-31T02:43:45;27.57;40.36
75985;DHT22;65033;44.660;37.758;2022-12-31T02:44:49;27.56;40.39
75985;DHT22;65033;44.660;37.758;2022-12-31T02:46:00;27.57;40.38
75985;DHT22;65033;44.660;37.758;2022-12-31T02:47:17;27.56;40.37
75985;DHT22;65033;44.660;37.758;2022-12-31T02:48:32;27.57;40.38
75985;DHT22;65033;44.660;37.758;2022-12-31T02:49:42;27.56;40.38
75985;DHT22;65033;44.660;37.758;2022-12-31T02:50:56;27.57;40.42
75985;DHT22;65033;44.660;37.758;2022-12-31T02:52:07;27.56;40.41
75985;DHT22;65033;44.660;37.758;2022-12-31T02:53:20;27.57;40.42
75985;DHT22;65033;44.660;37.758;2022-12-31T02:54:32;27.56;40.45
75985;DHT22;65033;44.660;37.758;2022-12-31T02:55:42;27.55;40.47
75985;DHT22;65033;44.660;37.758;2022-12-31T02:57:04;27.55;40.45
75985;DHT22;65033;44.660;37.758;2022-12-31T02:58:13;27.55;40.47
75985;DHT22;65033;44.660;37.758;2022-12-31T02:59:20;27.55;40.46
75985;DHT22;65033;44.660;37.758;2022-12-31T03:00:48;27.56;40.48
75985;DHT22;65033;44.660;37.758;2022-12-31T03:02:23;27.55;40.47
75985;DHT22;65033;44.660;37.758;2022-12-31T03:03:28;27.55;40.49
75985;DHT22;65033;44.660;37.758;2022-12-31T03:04:32;27.55;40.49
75985;DHT22;65033;44.660;37.758;2022-12-31T03:05:39;27.54;40.50
75985;DHT22;65033;44.660;37.758;2022-12-31T03:06:46;27.55;40.47
75985;DHT22;65033;44.660;37.758;2022-12-31T03:07:50;27.53;40.47
75985;DHT22;65033;44.660;37.758;2022-12-31T03:08:53;27.55;40.47
75985;DHT22;65033;44.660;37.758;2022-12-31T03:10:25;27.55;40.48
75985;DHT22;65033;44.660;37.758;2022-12-31T03:11:29;27.54;40.48
75985;DHT22;65033;44.660;37.758;2022-12-31T03:12:51;27.54;40.49
75985;DHT22;65033;44.660;37.758;2022-12-31T03:13:54;27.54;40.49
75985;DHT22;65033;44.660;37.758;2022-12-31T03:14:57;27.53;40.51
75985;DHT22;65033;44.660;37.758;2022-12-31T03:16:01;27.53;40.54
75985;DHT22;65033;44.660;37.758;2022-12-31T03:17:04;27.53;40.53
75985;DHT22;65033;44.660;37.758;2022-12-31T03:18:11;27.55;40.51
75985;DHT22;65033;44.660;37.758;2022-12-31T03:19:16;27.53;40.53
75985;DHT22;65033;44.660;37.758;2022-12-31T03:20:39;27.54;40.55
75985;DHT22;65033;44.660;37.758;2022-12-31T03:22:02;27.54;40.56
75985;DHT22;65033;44.660;37.758;2022-12-31T03:23:27;27.54;40.56
75985;DHT22;65033;44.660;37.758;2022-12-31T03:24:30;27.53;40.55
75985;DHT22;65033;44.660;37.758;2022-12-31T03:25:53;27.54;40.55
75985;DHT22;65033;44.660;37.758;2022-12-31T03:27:05;27.54;40.54
75985;DHT22;65033;44.660;37.758;2022-12-31T03:28:10;27.54;40.53
75985;DHT22;65033;44.660;37.758;2022-12-31T03:29:14;27.53;40.55
75985;DHT22;65033;44.660;37.758;2022-12-31T03:30:18;27.53;40.53
75985;DHT22;65033;44.660;37.758;2022-12-31T03:31:22;27.52;40.56
75985;DHT22;65033;44.660;37.758;2022-12-31T03:32:25;27.55;40.53
75985;DHT22;65033;44.660;37.758;2022-12-31T03:33:36;27.53;40.54
75985;DHT22;65033;44.660;37.758;2022-12-31T03:34:39;27.53;40.55
75985;DHT22;65033;44.660;37.758;2022-12-31T03:35:44;27.53;40.53
75985;DHT22;65033;44.660;37.758;2022-12-31T03:36:48;27.54;40.52
75985;DHT22;65033;44.660;37.758;2022-12-31T03:37:51;27.54;40.52
75985;DHT22;65033;44.660;37.758;2022-12-31T03:39:05;27.54;40.53
75985;DHT22;65033;44.660;37.758;2022-12-31T03:40:20;27.54;40.54
75985;DHT22;65033;44.660;37.758;2022-12-31T03:41:23;27.54;40.53
75985;DHT22;65033;44.660;37.758;2022-12-31T03:42:26;27.54;40.53
75985;DHT22;65033;44.660;37.758;2022-12-31T03:43:30;27.54;40.52
75985;DHT22;65033;44.660;37.758;2022-12-31T03:44:36;27.54;40.52
75985;DHT22;65033;44.660;37.758;2022-12-31T03:45:39;27.54;40.52
75985;DHT22;65033;44.660;37.758;2022-12-31T03:46:52;27.54;40.52
75985;DHT22;65033;44.660;37.758;2022-12-31T03:47:58;27.53;40.52
75985;DHT22;65033;44.660;37.758;2022-12-31T03:49:02;27.54;40.51
75985;DHT22;65033;44.660;37.758;2022-12-31T03:50:07;27.54;40.50
75985;DHT22;65033;44.660;37.758;2022-12-31T03:51:11;27.54;40.49
75985;DHT22;65033;44.660;37.758;2022-12-31T03:52:15;27.55;40.49
75985;DHT22;65033;44.660;37.758;2022-12-31T03:53:18;27.55;40.48
75985;DHT22;65033;44.660;37.758;2022-12-31T03:54:22;27.54;40.50
75985;DHT22;65033;44.660;37.758;2022-12-31T03:55:25;27.54;40.49
75985;DHT22;65033;44.660;37.758;2022-12-31T03:56:28;27.54;40.48
75985;DHT22;65033;44.660;37.758;2022-12-31T03:57:32;27.54;40.47
75985;DHT22;65033;44.660;37.758;2022-12-31T03:58:36;27.55;40.46
75985;DHT22;65033;44.660;37.758;2022-12-31T03:59:39;27.55;40.46
75985;DHT22;65033;44.660;37.758;2022-12-31T04:00:42;27.55;40.47
75985;DHT22;65033;44.660;37.758;2022-12-31T04:01:46;27.56;40.47
75985;DHT22;65033;44.660;37.758;2022-12-31T04:02:50;27.54;40.46
75985;DHT22;65033;44.660;37.758;2022-12-31T04:03:55;27.55;40.46
75985;DHT22;65033;44.660;37.758;2022-12-31T04:05:00;27.54;40.44
75985;DHT22;65033;44.660;37.758;2022-12-31T04:06:08;27.54;40.43
75985;DHT22;65033;44.660;37.758;2022-12-31T04:07:12;27.54;40.42
75985;DHT22;65033;44.660;37.758;2022-12-31T04:08:15;27.55;40.44
75985;DHT22;65033;44.660;37.758;2022-12-31T04:09:29;27.54;40.39
75985;DHT22;65033;44.660;37.758;2022-12-31T04:10:32;27.54;40.39
75985;DHT22;65033;44.660;37.758;2022-12-31T04:11:36;27.55;40.39
75985;DHT22;65033;44.660;37.758;2022-12-31T04:12:39;27.55;40.39
75985;DHT22;65033;44.660;37.758;2022-12-31T04:13:43;27.55;40.39
75985;DHT22;65033;44.660;37.758;2022-12-31T04:14:46;27.54;40.36
75985;DHT22;65033;44.660;37.758;2022-12-31T04:15:50;27.55;40.36
75985;DHT22;65033;44.660;37.758;2022-12-31T04:16:54;27.54;40.37
75985;DHT22;65033;44.660;37.758;2022-12-31T04:17:57;27.55;40.37
75985;DHT22;65033;44.660;37.758;2022-12-31T04:19:00;27.55;40.39
75985;DHT22;65033;44.660;37.758;2022-12-31T04:20:06;27.54;40.38
75985;DHT22;65033;44.660;37.758;2022-12-31T04:21:10;27.54;40.31
75985;DHT22;65033;44.660;37.758;2022-12-31T04:22:14;27.55;40.33
75985;DHT22;65033;44.660;37.758;2022-12-31T04:23:18;27.55;40.36
75985;DHT22;65033;44.660;37.758;2022-12-31T04:24:21;27.56;40.42
75985;DHT22;65033;44.660;37.758;2022-12-31T04:25:25;27.54;40.44
75985;DHT22;65033;44.660;37.758;2022-12-31T04:26:28;27.55;40.49
75985;DHT22;65033;44.660;37.758;2022-12-31T04:27:32;27.55;40.48
75985;DHT22;65033;44.660;37.758;2022-12-31T04:28:36;27.54;40.49
75985;DHT22;65033;44.660;37.758;2022-12-31T04:29:39;27.54;40.49
75985;DHT22;65033;44.660;37.758;2022-12-31T04:30:44;27.54;40.46
75985;DHT22;65033;44.660;37.758;2022-12-31T04:31:47;27.54;40.45
75985;DHT22;65033;44.660;37.758;2022-12-31T04:32:50;27.54;40.45
75985;DHT22;65033;44.660;37.758;2022-12-31T04:33:54;27.53;40.42
75985;DHT22;65033;44.660;37.758;2022-12-31T04:34:57;27.54;40.40
75985;DHT22;65033;44.660;37.758;2022-12-31T04:36:03;27.54;40.45
75985;DHT22;65033;44.660;37.758;2022-12-31T04:37:06;27.56;40.42
75985;DHT22;65033;44.660;37.758;2022-12-31T04:38:09;27.54;40.42
75985;DHT22;65033;44.660;37.758;2022-12-31T04:39:13;27.54;40.43
75985;DHT22;65033;44.660;37.758;2022-12-31T04:40:16;27.54;40.47
75985;DHT22;65033;44.660;37.758;2022-12-31T04:41:20;27.54;40.49
75985;DHT22;65033;44.660;37.758;2022-12-31T04:42:23;27.54;40.53
75985;DHT22;65033;44.660;37.758;2022-12-31T04:43:26;27.55;40.55
75985;DHT22;65033;44.660;37.758;2022-12-31T04:44:40;27.54;40.59
75985;DHT22;65033;44.660;37.758;2022-12-31T04:45:43;27.55;40.64
75985;DHT22;65033;44.660;37.758;2022-12-31T04:46:46;27.55;40.65
75985;DHT22;65033;44.660;37.758;2022-12-31T04:47:53;27.53;40.60
75985;DHT22;65033;44.660;37.758;2022-12-31T04:48:57;27.54;40.62
75985;DHT22;65033;44.660;37.758;2022-12-31T04:50:00;27.54;40.63
75985;DHT22;65033;44.660;37.758;2022-12-31T04:51:05;27.55;40.63
75985;DHT22;65033;44.660;37.758;2022-12-31T04:52:09;27.55;40.62
75985;DHT22;65033;44.660;37.758;2022-12-31T04:53:12;27.55;40.62
75985;DHT22;65033;44.660;37.758;2022-12-31T04:54:17;27.54;40.64
75985;DHT22;65033;44.660;37.758;2022-12-31T04:55:20;27.55;40.62
75985;DHT22;65033;44.660;37.758;2022-12-31T04:56:34;27.53;40.61
75985;DHT22;65033;44.660;37.758;2022-12-31T04:57:39;27.55;40.64
75985;DHT22;65033;44.660;37.758;2022-12-31T04:58:43;27.54;40.62
75985;DHT22;65033;44.660;37.758;2022-12-31T04:59:46;27.55;40.66
75985;DHT22;65033;44.660;37.758;2022-12-31T05:00:50;27.53;40.63
75985;DHT22;65033;44.660;37.758;2022-12-31T05:01:54;27.54;40.65
75985;DHT22;65033;44.660;37.758;2022-12-31T05:02:57;27.55;40.63
75985;DHT22;65033;44.660;37.758;2022-12-31T05:04:01;27.55;40.66
75985;DHT22;65033;44.660;37.758;2022-12-31T05:05:08;27.55;40.60
75985;DHT22;65033;44.660;37.758;2022-12-31T05:06:23;27.55;40.61
75985;DHT22;65033;44.660;37.758;2022-12-31T05:07:26;27.56;40.59
75985;DHT22;65033;44.660;37.758;2022-12-31T05:08:30;27.56;40.60
75985;DHT22;65033;44.660;37.758;2022-12-31T05:09:33;27.55;40.60
75985;DHT22;65033;44.660;37.758;2022-12-31T05:10:40;27.55;40.62
75985;DHT22;65033;44.660;37.758;2022-12-31T05:11:44;27.57;40.62
75985;DHT22;65033;44.660;37.758;2022-12-31T05:12:47;27.56;40.66
75985;DHT22;65033;44.660;37.758;2022-12-31T05:13:51;27.55;40.65
75985;DHT22;65033;44.660;37.758;2022-12-31T05:14:54;27.57;40.68
75985;DHT22;65033;44.660;37.758;2022-12-31T05:15:57;27.58;40.70
75985;DHT22;65033;44.660;37.758;2022-12-31T05:17:00;27.58;40.71
75985;DHT22;65033;44.660;37.758;2022-12-31T05:18:04;27.58;40.78
75985;DHT22;65033;44.660;37.758;2022-12-31T05:19:07;27.58;40.81
75985;DHT22;65033;44.660;37.758;2022-12-31T05:20:11;27.59;40.88
75985;DHT22;65033;44.660;37.758;2022-12-31T05:21:17;27.59;40.93
75985;DHT22;65033;44.660;37.758;2022-12-31T05:22:23;27.60;41.01
75985;DHT22;65033;44.660;37.758;2022-12-31T05:23:32;27.60;40.98
75985;DHT22;65033;44.660;37.758;2022-12-31T05:24:37;27.59;41.01
75985;DHT22;65033;44.660;37.758;2022-12-31T05:25:41;27.59;41.05
75985;DHT22;65033;44.660;37.758;2022-12-31T05:26:45;27.60;41.07
75985;DHT22;65033;44.660;37.758;2022-12-31T05:27:51;27.59;41.19
75985;DHT22;65033;44.660;37.758;2022-12-31T05:28:55;27.60;41.20
75985;DHT22;65033;44.660;37.758;2022-12-31T05:30:01;27.60;41.20
75985;DHT22;65033;44.660;37.758;2022-12-31T05:31:14;27.61;41.25
75985;DHT22;65033;44.660;37.758;2022-12-31T05:32:17;27.61;41.27
75985;DHT22;65033;44.660;37.758;2022-12-31T05:33:21;27.60;41.29
75985;DHT22;65033;44.660;37.758;2022-12-31T05:34:27;27.59;41.29
75985;DHT22;65033;44.660;37.758;2022-12-31T05:35:41;27.61;41.36
75985;DHT22;65033;44.660;37.758;2022-12-31T05:36:45;27.63;41.36
75985;DHT22;65033;44.660;37.758;2022-12-31T05:37:50;27.61;41.41
75985;DHT22;65033;44.660;37.758;2022-12-31T05:38:54;27.60;41.36
75985;DHT22;65033;44.660;37.758;2022-12-31T05:39:57;27.59;41.16
75985;DHT22;65033;44.660;37.758;2022-12-31T05:41:02;27.60;41.23
75985;DHT22;65033;44.660;37.758;2022-12-31T05:42:06;27.60;41.42
75985;DHT22;65033;44.660;37.758;2022-12-31T05:43:09;27.58;41.42
75985;DHT22;65033;44.660;37.758;2022-12-31T05:44:13;27.59;41.44
75985;DHT22;65033;44.660;37.758;2022-12-31T05:45:16;27.58;41.49
75985;DHT22;65033;44.660;37.758;2022-12-31T05:46:20;27.59;41.44
75985;DHT22;65033;44.660;37.758;2022-12-31T05:47:24;27.59;41.34
75985;DHT22;65033;44.660;37.758;2022-12-31T05:48:28;27.58;41.36
75985;DHT22;65033;44.660;37.758;2022-12-31T05:49:31;27.58;41.35
75985;DHT22;65033;44.660;37.758;2022-12-31T05:50:34;27.58;41.35
75985;DHT22;65033;44.660;37.758;2022-12-31T05:51:48;27.57;41.33
75985;DHT22;65033;44.660;37.758;2022-12-31T05:52:53;27.57;41.30
75985;DHT22;65033;44.660;37.758;2022-12-31T05:53:56;27.57;41.28
75985;DHT22;65033;44.660;37.758;2022-12-31T05:55:00;27.57;41.26
75985;DHT22;65033;44.660;37.758;2022-12-31T05:56:04;27.57;41.39
75985;DHT22;65033;44.660;37.758;2022-12-31T05:57:07;27.56;41.32
75985;DHT22;65033;44.660;37.758;2022-12-31T05:58:11;27.58;41.29
75985;DHT22;65033;44.660;37.758;2022-12-31T05:59:14;27.56;41.29
75985;DHT22;65033;44.660;37.758;2022-12-31T06:00:18;27.57;41.29
75985;DHT22;65033;44.660;37.758;2022-12-31T06:01:22;27.58;41.30
75985;DHT22;65033;44.660;37.758;2022-12-31T06:02:36;27.58;41.26
75985;DHT22;65033;44.660;37.758;2022-12-31T06:03:40;27.60;41.26
75985;DHT22;65033;44.660;37.758;2022-12-31T06:04:53;27.60;41.26
75985;DHT22;65033;44.660;37.758;2022-12-31T06:05:57;27.60;41.25
75985;DHT22;65033;44.660;37.758;2022-12-31T06:07:06;27.60;41.25
75985;DHT22;65033;44.660;37.758;2022-12-31T06:08:11;27.60;41.26
75985;DHT22;65033;44.660;37.758;2022-12-31T06:09:15;27.59;41.20
75985;DHT22;65033;44.660;37.758;2022-12-31T06:10:18;27.60;41.15
75985;DHT22;65033;44.660;37.758;2022-12-31T06:11:21;27.59;41.13
75985;DHT22;65033;44.660;37.758;2022-12-31T06:12:24;27.60;41.12
75985;DHT22;65033;44.660;37.758;2022-12-31T06:13:28;27.60;41.16
75985;DHT22;65033;44.660;37.758;2022-12-31T06:14:32;27.60;41.17
75985;DHT22;65033;44.660;37.758;2022-12-31T06:15:37;27.60;41.16
75985;DHT22;65033;44.660;37.758;2022-12-31T06:16:41;27.59;41.15
75985;DHT22;65033;44.660;37.758;2022-12-31T06:17:45;27.60;41.11
75985;DHT22;65033;44.660;37.758;2022-12-31T06:18:48;27.61;41.12
75985;DHT22;65033;44.660;37.758;2022-12-31T06:19:52;27.59;41.10
75985;DHT22;65033;44.660;37.758;2022-12-31T06:20:57;27.60;41.10
75985;DHT22;65033;44.660;37.758;2022-12-31T06:22:08;27.63;41.10
75985;DHT22;65033;44.660;37.758;2022-12-31T06:23:12;27.64;41.08
75985;DHT22;65033;44.660;37.758;2022-12-31T06:24:16;27.66;41.04
75985;DHT22;65033;44.660;37.758;2022-12-31T06:25:22;27.68;40.99
75985;DHT22;65033;44.660;37.758;2022-12-31T06:26:26;27.71;40.94
75985;DHT22;65033;44.660;37.758;2022-12-31T06:27:32;27.72;40.88
75985;DHT22;65033;44.660;37.758;2022-12-31T06:28:35;27.74;40.84
75985;DHT22;65033;44.660;37.758;2022-12-31T06:29:38;27.78;40.75
75985;DHT22;65033;44.660;37.758;2022-12-31T06:30:42;27.78;40.71
75985;DHT22;65033;44.660;37.758;2022-12-31T06:31:55;27.79;40.69
75985;DHT22;65033;44.660;37.758;2022-12-31T06:32:59;27.81;40.66
75985;DHT22;65033;44.660;37.758;2022-12-31T06:34:05;27.83;40.64
75985;DHT22;65033;44.660;37.758;2022-12-31T06:35:12;27.84;40.65
75985;DHT22;65033;44.660;37.758;2022-12-31T06:36:26;27.86;40.64
75985;DHT22;65033;44.660;37.758;2022-12-31T06:37:29;27.87;40.65
75985;DHT22;65033;44.660;37.758;2022-12-31T06:38:37;27.90;40.65
75985;DHT22;65033;44.660;37.758;2022-12-31T06:39:41;27.93;40.62
75985;DHT22;65033;44.660;37.758;2022-12-31T06:40:44;27.94;40.62
75985;DHT22;65033;44.660;37.758;2022-12-31T06:41:48;27.95;40.59
75985;DHT22;65033;44.660;37.758;2022-12-31T06:42:51;27.98;40.59
75985;DHT22;65033;44.660;37.758;2022-12-31T06:43:59;28.00;40.56
75985;DHT22;65033;44.660;37.758;2022-12-31T06:45:03;28.02;40.60
75985;DHT22;65033;44.660;37.758;2022-12-31T06:46:11;28.04;40.58
75985;DHT22;65033;44.660;37.758;2022-12-31T06:47:15;28.06;40.51
75985;DHT22;65033;44.660;37.758;2022-12-31T06:48:19;28.06;40.46
75985;DHT22;65033;44.660;37.758;2022-12-31T06:49:23;28.09;40.39
75985;DHT22;65033;44.660;37.758;2022-12-31T06:50:29;28.10;40.36
75985;DHT22;65033;44.660;37.758;2022-12-31T06:51:32;28.11;40.34
75985;DHT22;65033;44.660;37.758;2022-12-31T06:52:42;28.12;40.30
75985;DHT22;65033;44.660;37.758;2022-12-31T06:53:52;28.12;40.26
75985;DHT22;65033;44.660;37.758;2022-12-31T06:55:01;28.12;40.25